createdAt,value
2022-12-14T00:01:16.728Z,100544.44
2022-12-14T00:03:43.885Z,100533.16
2022-12-14T00:06:12.420Z,100541.69
2022-12-14T00:08:41.857Z,100536.16
2022-12-14T00:11:09.591Z,100528.19
2022-12-14T00:13:37.140Z,100526.31
2022-12-14T00:16:13.211Z,100529.13
2022-12-14T00:18:40.891Z,100518.09
2022-12-14T00:21:09.921Z,100517.91
2022-12-14T00:23:39.292Z,100515.31
2022-12-14T00:26:18.972Z,100519.31
2022-12-14T00:28:46.489Z,100513.69
2022-12-14T00:31:13.692Z,100513.50
2022-12-14T00:33:40.459Z,100514.38
2022-12-14T00:36:08.252Z,100514.44
2022-12-14T00:38:34.995Z,100512.41
2022-12-14T00:41:01.967Z,100504.91
2022-12-14T00:43:28.489Z,100508.91
2022-12-14T00:45:55.033Z,100506.56
2022-12-14T00:48:23.731Z,100507.38
2022-12-14T00:50:51.804Z,100509.66
2022-12-14T00:53:19.612Z,100505.53
2022-12-14T00:55:49.318Z,100507.50
2022-12-14T00:58:19.139Z,100505.38
2022-12-14T01:00:45.770Z,100502.13
2022-12-14T01:03:12.994Z,100496.91
2022-12-14T01:05:39.935Z,100498.41
2022-12-14T01:08:07.206Z,100497.22
2022-12-14T01:10:33.688Z,100495.06
2022-12-14T01:13:00.115Z,100489.41
2022-12-14T01:15:26.555Z,100488.94
2022-12-14T01:17:53.066Z,100478.06
2022-12-14T01:20:19.558Z,100484.50
2022-12-14T01:22:46.058Z,100481.31
2022-12-14T01:25:12.736Z,100488.50
2022-12-14T01:27:39.183Z,100485.25
2022-12-14T01:30:05.978Z,100486.50
2022-12-14T01:32:34.410Z,100489.53
2022-12-14T01:35:00.808Z,100479.63
2022-12-14T01:37:27.214Z,100473.81
2022-12-14T01:39:53.633Z,100478.50
2022-12-14T01:42:20.075Z,100474.81
2022-12-14T01:44:53.124Z,100475.78
2022-12-14T01:47:30.484Z,100468.25
2022-12-14T01:50:05.231Z,100471.16
2022-12-14T01:52:52.377Z,100468.66
2022-12-14T01:55:23.576Z,100469.13
2022-12-14T01:57:58.229Z,100463.78
2022-12-14T02:00:24.694Z,100458.09
2022-12-14T02:02:58.669Z,100461.41
2022-12-14T02:05:25.698Z,100465.81
2022-12-14T02:07:54.044Z,100463.09
2022-12-14T02:10:21.501Z,100451.34
2022-12-14T02:13:00.703Z,100457.13
2022-12-14T02:15:27.619Z,100455.44
2022-12-14T02:17:54.124Z,100455.75
2022-12-14T02:20:21.787Z,100446.56
2022-12-14T02:23:03.379Z,100442.31
2022-12-14T02:25:45.057Z,100438.91
2022-12-14T02:28:44.936Z,100432.06
2022-12-14T02:31:31.818Z,100432.50
2022-12-14T02:34:05.805Z,100416.59
2022-12-14T02:37:01.429Z,100421.47
2022-12-14T02:39:33.794Z,100416.06
2022-12-14T02:42:24.433Z,100413.75
2022-12-14T02:45:06.230Z,100414.59
2022-12-14T02:47:40.450Z,100412.91
2022-12-14T02:50:12.735Z,100413.19
2022-12-14T02:52:47.041Z,100408.16
2022-12-14T02:55:37.088Z,100405.19
2022-12-14T02:58:07.150Z,100401.06
2022-12-14T03:00:35.083Z,100398.66
2022-12-14T03:03:02.075Z,100387.50
2022-12-14T03:05:28.836Z,100399.41
2022-12-14T03:08:06.417Z,100399.59
2022-12-14T03:10:44.015Z,100383.84
2022-12-14T03:13:19.930Z,100394.47
2022-12-14T03:15:50.648Z,100392.75
2022-12-14T03:18:18.788Z,100379.13
2022-12-14T03:20:48.358Z,100381.63
2022-12-14T03:23:20.863Z,100375.88
2022-12-14T03:26:05.345Z,100377.72
2022-12-14T03:29:01.048Z,100377.56
2022-12-14T03:31:35.182Z,100378.16
2022-12-14T03:34:04.025Z,100371.59
2022-12-14T03:36:36.084Z,100360.38
2022-12-14T03:39:04.607Z,100364.06
2022-12-14T03:41:38.449Z,100366.66
2022-12-14T03:44:26.693Z,100357.00
2022-12-14T03:46:57.684Z,100350.97
2022-12-14T03:49:53.064Z,100341.97
2022-12-14T03:52:35.628Z,100338.78
2022-12-14T03:55:16.642Z,100334.25
2022-12-14T03:57:57.011Z,100332.72
2022-12-14T04:00:24.884Z,100329.53
2022-12-14T04:03:27.403Z,100329.63
2022-12-14T04:06:05.318Z,100326.59
2022-12-14T04:08:41.640Z,100318.97
2022-12-14T04:11:30.305Z,100324.66
2022-12-14T04:14:25.441Z,100321.16
2022-12-14T04:17:10.670Z,100316.09
2022-12-14T04:19:45.927Z,100312.81
2022-12-14T04:22:18.718Z,100308.09
2022-12-14T04:25:26.765Z,100313.69
2022-12-14T04:28:53.714Z,100308.47
2022-12-14T04:31:21.574Z,100301.47
2022-12-14T04:33:53.288Z,100297.84
2022-12-14T04:36:30.340Z,100291.84
2022-12-14T04:39:03.102Z,100292.47
2022-12-14T04:41:34.627Z,100290.53
2022-12-14T04:44:06.019Z,100298.44
2022-12-14T04:46:40.295Z,100295.13
2022-12-14T04:49:35.069Z,100299.91
2022-12-14T04:52:21.911Z,100294.59
2022-12-14T04:55:12.463Z,100290.00
2022-12-14T04:57:54.707Z,100284.97
2022-12-14T05:00:21.147Z,100280.72
2022-12-14T05:03:01.278Z,100284.56
2022-12-14T05:05:44.035Z,100290.50
2022-12-14T05:08:17.616Z,100287.34
2022-12-14T05:10:48.608Z,100294.38
2022-12-14T05:13:20.814Z,100282.28
2022-12-14T05:15:50.603Z,100283.63
2022-12-14T05:18:17.492Z,100282.13
2022-12-14T05:20:43.901Z,100282.56
2022-12-14T05:23:10.302Z,100276.72
2022-12-14T05:25:36.754Z,100272.91
2022-12-14T05:28:03.280Z,100279.63
2022-12-14T05:30:30.077Z,100275.97
2022-12-14T05:32:56.590Z,100273.94
2022-12-14T05:35:23.223Z,100271.78
2022-12-14T05:37:49.674Z,100267.50
2022-12-14T05:40:16.473Z,100264.31
2022-12-14T05:42:46.104Z,100274.78
2022-12-14T05:45:14.220Z,100264.41
2022-12-14T05:47:40.664Z,100256.78
2022-12-14T05:50:07.699Z,100252.19
2022-12-14T05:52:34.276Z,100248.53
2022-12-14T05:55:04.183Z,100249.31
2022-12-14T05:57:31.477Z,100246.56
2022-12-14T05:59:57.912Z,100241.88
2022-12-14T06:02:27.524Z,100245.47
2022-12-14T06:04:54.044Z,100241.81
2022-12-14T06:07:25.914Z,100241.47
2022-12-14T06:09:53.984Z,100239.44
2022-12-14T06:12:20.436Z,100232.81
2022-12-14T06:14:46.951Z,100234.34
2022-12-14T06:17:13.392Z,100235.72
2022-12-14T06:19:39.806Z,100225.38
2022-12-14T06:22:06.281Z,100228.88
2022-12-14T06:24:32.744Z,100229.53
2022-12-14T06:26:59.216Z,100226.78
2022-12-14T06:29:26.132Z,100226.44
2022-12-14T06:31:52.715Z,100226.88
2022-12-14T06:34:21.299Z,100234.44
2022-12-14T06:36:51.534Z,100228.81
2022-12-14T06:39:18.005Z,100231.84
2022-12-14T06:41:44.744Z,100237.22
2022-12-14T06:44:13.321Z,100236.22
2022-12-14T06:46:40.492Z,100243.66
2022-12-14T06:49:07.332Z,100238.81
2022-12-14T06:51:39.608Z,100233.63
2022-12-14T06:54:06.403Z,100232.97
2022-12-14T06:56:33.324Z,100238.59
2022-12-14T06:58:59.738Z,100227.88
2022-12-14T07:01:26.350Z,100229.81
2022-12-14T07:03:55.128Z,100225.41
2022-12-14T07:06:22.680Z,100222.81
2022-12-14T07:08:49.576Z,100224.19
2022-12-14T07:11:17.014Z,100217.75
2022-12-14T07:13:43.790Z,100216.41
2022-12-14T07:16:21.149Z,100214.06
2022-12-14T07:18:48.108Z,100213.63
2022-12-14T07:21:15.759Z,100208.72
2022-12-14T07:23:43.645Z,100205.25
2022-12-14T07:26:16.191Z,100203.47
2022-12-14T07:28:44.618Z,100204.84
2022-12-14T07:31:19.671Z,100199.13
2022-12-14T07:33:46.469Z,100203.38
2022-12-14T07:36:19.292Z,100188.47
2022-12-14T07:38:48.047Z,100197.06
2022-12-14T07:41:23.797Z,100197.38
2022-12-14T07:43:51.792Z,100195.28
2022-12-14T07:46:21.159Z,100194.09
2022-12-14T07:48:49.593Z,100193.34
2022-12-14T07:51:17.998Z,100187.59
2022-12-14T07:53:44.546Z,100187.91
2022-12-14T07:56:13.012Z,100189.13
2022-12-14T07:58:39.550Z,100187.94
2022-12-14T08:01:16.290Z,100189.63
2022-12-14T08:03:45.675Z,100190.88
2022-12-14T08:06:13.609Z,100190.72
2022-12-14T08:08:41.030Z,100197.44
2022-12-14T08:11:08.257Z,100194.72
2022-12-14T08:13:34.951Z,100197.44
2022-12-14T08:16:11.217Z,100187.84
2022-12-14T08:18:37.993Z,100194.72
2022-12-14T08:21:06.460Z,100197.78
2022-12-14T08:23:33.820Z,100204.81
2022-12-14T08:26:01.258Z,100198.44
2022-12-14T08:28:29.094Z,100190.84
2022-12-14T08:30:55.938Z,100199.63
2022-12-14T08:33:24.453Z,100202.22
2022-12-14T08:35:50.914Z,100198.88
2022-12-14T08:38:17.812Z,100194.44
2022-12-14T08:40:44.212Z,100195.66
2022-12-14T08:43:10.692Z,100192.47
2022-12-14T08:45:37.122Z,100194.19
2022-12-14T08:48:04.689Z,100199.06
2022-12-14T08:50:31.230Z,100192.78
2022-12-14T08:52:57.940Z,100191.22
2022-12-14T08:55:29.201Z,100194.25
2022-12-14T08:57:58.186Z,100186.28
2022-12-14T09:00:24.762Z,100189.94
2022-12-14T09:02:51.538Z,100180.44
2022-12-14T09:05:18.120Z,100184.38
2022-12-14T09:07:45.636Z,100184.78
2022-12-14T09:10:13.754Z,100187.88
2022-12-14T09:12:40.730Z,100188.47
2022-12-14T09:15:08.178Z,100186.59
2022-12-14T09:17:34.753Z,100177.22
2022-12-14T09:20:01.235Z,100180.28
2022-12-14T09:22:27.761Z,100184.94
2022-12-14T09:24:54.538Z,100175.44
2022-12-14T09:27:22.378Z,100176.38
2022-12-14T09:29:49.863Z,100175.00
2022-12-14T09:32:16.945Z,100168.84
2022-12-14T09:34:43.382Z,100163.25
2022-12-14T09:37:10.310Z,100175.31
2022-12-14T09:39:36.912Z,100166.09
2022-12-14T09:42:38.049Z,100177.31
2022-12-14T09:45:04.518Z,100174.50
2022-12-14T09:48:17.028Z,100166.34
2022-12-14T09:50:47.299Z,100169.00
2022-12-14T09:53:14.667Z,100161.69
2022-12-14T09:55:50.203Z,100158.84
2022-12-14T09:58:20.268Z,100163.41
2022-12-14T10:00:53.784Z,100155.59
2022-12-14T10:03:49.897Z,100149.50
2022-12-14T10:06:39.295Z,100163.19
2022-12-14T10:09:38.615Z,100145.78
2022-12-14T10:12:22.056Z,100148.41
2022-12-14T10:14:58.955Z,100144.94
2022-12-14T10:18:03.462Z,100146.84
2022-12-14T10:20:37.540Z,100139.69
2022-12-14T10:23:04.175Z,100137.50
2022-12-14T10:25:35.846Z,100130.44
2022-12-14T10:28:20.593Z,100134.97
2022-12-14T10:30:48.370Z,100128.97
2022-12-14T10:33:29.452Z,100129.38
2022-12-14T10:36:00.200Z,100125.00
2022-12-14T10:38:49.927Z,100129.81
2022-12-14T10:41:49.567Z,100133.88
2022-12-14T10:44:31.109Z,100118.66
2022-12-14T10:47:13.780Z,100130.03
2022-12-14T10:49:47.155Z,100126.75
2022-12-14T10:52:22.959Z,100121.59
2022-12-14T10:54:54.682Z,100123.47
2022-12-14T10:57:27.604Z,100125.00
2022-12-14T11:00:07.715Z,100122.22
2022-12-14T11:02:40.022Z,100130.00
2022-12-14T11:05:32.526Z,100117.41
2022-12-14T11:08:02.538Z,100113.63
2022-12-14T11:10:31.378Z,100104.34
2022-12-14T11:13:05.793Z,100111.81
2022-12-14T11:15:37.067Z,100106.09
2022-12-14T11:18:15.674Z,100107.16
2022-12-14T11:20:56.477Z,100108.34
2022-12-14T11:23:37.880Z,100106.91
2022-12-14T11:26:13.601Z,100100.22
2022-12-14T11:28:49.916Z,100105.03
2022-12-14T11:31:24.797Z,100102.50
2022-12-14T11:33:52.884Z,100096.09
2022-12-14T11:36:34.478Z,100087.16
2022-12-14T11:39:13.298Z,100097.69
2022-12-14T11:41:46.837Z,100082.09
2022-12-14T11:44:16.193Z,100100.31
2022-12-14T11:46:57.890Z,100095.56
2022-12-14T11:49:39.514Z,100091.69
2022-12-14T11:52:06.056Z,100095.06
2022-12-14T11:54:33.129Z,100094.97
2022-12-14T11:57:04.254Z,100106.38
2022-12-14T11:59:45.253Z,100087.31
2022-12-14T12:02:17.872Z,100090.94
2022-12-14T12:04:56.145Z,100086.97
2022-12-14T12:07:29.762Z,100082.94
2022-12-14T12:10:01.446Z,100093.91
2022-12-14T12:12:28.177Z,100091.78
2022-12-14T12:14:55.888Z,100096.00
2022-12-14T12:17:37.884Z,100092.56
2022-12-14T12:20:13.029Z,100084.28
2022-12-14T12:22:43.564Z,100083.44
2022-12-14T12:25:26.669Z,100084.47
2022-12-14T12:28:04.475Z,100072.59
2022-12-14T12:30:33.616Z,100072.53
2022-12-14T12:33:21.911Z,100067.28
2022-12-14T12:35:54.710Z,100066.00
2022-12-14T12:38:42.114Z,100065.84
2022-12-14T12:41:25.813Z,100074.44
2022-12-14T12:43:56.419Z,100074.94
2022-12-14T12:46:33.561Z,100077.22
2022-12-14T12:49:10.183Z,100076.47
2022-12-14T12:51:46.156Z,100076.97
2022-12-14T12:54:18.035Z,100074.88
2022-12-14T12:56:48.118Z,100074.28
2022-12-14T12:59:46.669Z,100074.78
2022-12-14T13:02:30.516Z,100075.97
2022-12-14T13:05:10.868Z,100077.13
2022-12-14T13:07:49.536Z,100071.16
2022-12-14T13:10:21.193Z,100076.47
2022-12-14T13:12:50.362Z,100071.22
2022-12-14T13:15:29.815Z,100071.75
2022-12-14T13:18:41.200Z,100072.09
2022-12-14T13:21:34.954Z,100076.53
2022-12-14T13:24:02.881Z,100069.72
2022-12-14T13:27:03.000Z,100066.00
2022-12-14T13:30:14.611Z,100066.59
2022-12-14T13:32:44.138Z,100055.38
2022-12-14T13:35:44.503Z,100046.38
2022-12-14T13:38:53.129Z,100044.59
2022-12-14T13:41:28.085Z,100050.00
2022-12-14T13:44:15.865Z,100046.97
2022-12-14T13:46:42.878Z,100046.53
2022-12-14T13:49:19.824Z,100045.72
2022-12-14T13:51:50.185Z,100042.34
2022-12-14T13:54:27.577Z,100047.66
2022-12-14T13:57:13.692Z,100037.19
2022-12-14T13:59:42.793Z,100034.72
2022-12-14T14:02:29.432Z,100041.06
2022-12-14T14:05:15.612Z,100038.09
2022-12-14T14:07:58.860Z,100037.34
2022-12-14T14:10:37.943Z,100037.94
2022-12-14T14:13:27.467Z,100036.19
2022-12-14T14:16:26.819Z,100035.38
2022-12-14T14:18:55.416Z,100047.16
2022-12-14T14:21:21.800Z,100047.41
2022-12-14T14:24:01.038Z,100041.16
2022-12-14T14:26:34.765Z,100039.50
2022-12-14T14:29:26.851Z,100046.50
2022-12-14T14:32:00.524Z,100047.72
2022-12-14T14:34:30.198Z,100047.63
2022-12-14T14:36:56.776Z,100042.47
2022-12-14T14:42:26.096Z,100039.09
2022-12-14T14:44:58.941Z,100039.44
2022-12-14T14:47:31.582Z,100044.50
2022-12-14T14:50:00.875Z,100055.41
2022-12-14T14:52:39.728Z,100051.59
2022-12-14T14:55:53.187Z,100050.44
2022-12-14T14:58:28.154Z,100042.13
2022-12-14T15:01:02.006Z,100035.09
2022-12-14T15:03:35.378Z,100037.66
2022-12-14T15:06:01.921Z,100048.63
2022-12-14T15:08:34.778Z,100046.63
2022-12-14T15:11:05.319Z,100047.13
2022-12-14T15:13:48.191Z,100046.16
2022-12-14T15:16:41.786Z,100046.75
2022-12-14T15:19:22.352Z,100049.44
2022-12-14T15:21:51.434Z,100051.53
2022-12-14T15:24:18.014Z,100059.09
2022-12-14T15:26:44.508Z,100057.50
2022-12-14T15:29:17.889Z,100048.03
2022-12-14T15:31:44.820Z,100057.13
2022-12-14T15:34:17.548Z,100052.78
2022-12-14T15:36:44.286Z,100062.75
2022-12-14T15:39:42.179Z,100060.81
2022-12-14T15:42:15.166Z,100061.69
2022-12-14T15:44:52.467Z,100062.13
2022-12-14T15:47:28.550Z,100066.00
2022-12-14T15:50:00.507Z,100071.63
2022-12-14T15:52:30.716Z,100065.13
2022-12-14T15:54:58.508Z,100076.59
2022-12-14T15:57:25.495Z,100065.19
2022-12-14T15:59:54.592Z,100068.78
2022-12-14T16:02:21.078Z,100073.41
2022-12-14T16:04:48.321Z,100069.75
2022-12-14T16:07:19.072Z,100074.00
2022-12-14T16:09:50.162Z,100067.34
2022-12-14T16:12:21.687Z,100062.41
2022-12-14T16:15:20.922Z,100064.78
2022-12-14T16:17:47.660Z,100064.56
2022-12-14T16:20:14.609Z,100061.06
2022-12-14T16:22:41.456Z,100060.19
2022-12-14T16:25:11.796Z,100066.91
2022-12-14T16:27:42.713Z,100063.34
2022-12-14T16:30:19.991Z,100069.94
2022-12-14T16:32:50.054Z,100071.16
2022-12-14T16:35:25.334Z,100074.91
2022-12-14T16:37:58.176Z,100082.31
2022-12-14T16:40:30.725Z,100077.94
2022-12-14T16:42:57.316Z,100069.69
2022-12-14T16:45:36.244Z,100073.81
2022-12-14T16:48:14.534Z,100066.28
2022-12-14T16:50:57.374Z,100066.94
2022-12-14T16:53:29.585Z,100064.28
2022-12-14T16:56:01.738Z,100061.56
2022-12-14T16:58:28.346Z,100055.34
2022-12-14T17:01:00.482Z,100062.56
2022-12-14T17:03:28.504Z,100059.38
2022-12-14T17:06:01.980Z,100060.84
2022-12-14T17:08:28.968Z,100056.59
2022-12-14T17:10:55.398Z,100049.84
2022-12-14T17:13:21.810Z,100053.97
2022-12-14T17:16:04.661Z,100057.50
2022-12-14T17:18:43.101Z,100057.31
2022-12-14T17:21:17.995Z,100061.41
2022-12-14T17:23:44.754Z,100063.19
2022-12-14T17:26:23.557Z,100071.19
2022-12-14T17:28:50.394Z,100071.72
2022-12-14T17:31:22.484Z,100071.44
2022-12-14T17:33:51.054Z,100077.13
2022-12-14T17:36:17.806Z,100070.16
2022-12-14T17:38:44.640Z,100064.09
2022-12-14T17:41:16.668Z,100073.69
2022-12-14T17:43:49.939Z,100068.56
2022-12-14T17:46:17.682Z,100071.09
2022-12-14T17:48:44.116Z,100059.72
2022-12-14T17:51:20.018Z,100061.38
2022-12-14T17:53:46.638Z,100057.81
2022-12-14T17:56:13.013Z,100064.97
2022-12-14T17:58:39.468Z,100071.72
2022-12-14T18:01:07.409Z,100068.03
2022-12-14T18:03:37.370Z,100075.81
2022-12-14T18:06:04.619Z,100071.53
2022-12-14T18:08:31.110Z,100073.22
2022-12-14T18:11:07.556Z,100061.38
2022-12-14T18:13:38.427Z,100069.16
2022-12-14T18:16:05.315Z,100072.78
2022-12-14T18:18:31.912Z,100075.00
2022-12-14T18:21:01.001Z,100080.06
2022-12-14T18:23:29.906Z,100077.53
2022-12-14T18:25:58.426Z,100077.38
2022-12-14T18:28:24.884Z,100083.31
2022-12-14T18:30:55.343Z,100089.66
2022-12-14T18:33:24.147Z,100088.44
2022-12-14T18:35:52.009Z,100085.41
2022-12-14T18:38:18.591Z,100091.81
2022-12-14T18:40:49.737Z,100084.44
2022-12-14T18:43:24.932Z,100077.78
2022-12-14T18:45:53.100Z,100076.28
2022-12-14T18:48:20.536Z,100072.44
2022-12-14T18:50:49.756Z,100075.22
2022-12-14T18:53:18.433Z,100066.84
2022-12-14T18:55:45.046Z,100078.16
2022-12-14T18:58:25.816Z,100079.69
2022-12-14T19:00:54.877Z,100087.28
2022-12-14T19:03:23.138Z,100094.19
2022-12-14T19:05:50.173Z,100092.06
2022-12-14T19:08:17.196Z,100110.88
2022-12-14T19:10:46.320Z,100098.97
2022-12-14T19:13:25.852Z,100101.44
2022-12-14T19:15:54.116Z,100105.72
2022-12-14T19:18:20.682Z,100116.69
2022-12-14T19:20:49.361Z,100118.56
2022-12-14T19:23:17.306Z,100123.53
2022-12-14T19:25:44.080Z,100124.94
2022-12-14T19:28:30.808Z,100119.53
2022-12-14T19:30:58.192Z,100122.03
2022-12-14T19:33:25.522Z,100128.00
2022-12-14T19:35:52.587Z,100112.59
2022-12-14T19:38:19.219Z,100117.34
2022-12-14T19:41:04.161Z,100118.56
2022-12-14T19:43:31.051Z,100118.88
2022-12-14T19:45:57.908Z,100125.72
2022-12-14T19:48:24.563Z,100119.47
2022-12-14T19:50:51.138Z,100125.88
2022-12-14T19:53:23.266Z,100120.69
2022-12-14T19:55:52.443Z,100126.34
2022-12-14T19:58:21.712Z,100126.84
2022-12-14T20:00:49.017Z,100121.44
2022-12-14T20:03:15.567Z,100119.50
2022-12-14T20:05:49.390Z,100119.50
2022-12-14T20:08:15.825Z,100116.59
2022-12-14T20:10:42.338Z,100108.03
2022-12-14T20:13:08.756Z,100114.63
2022-12-14T20:15:35.250Z,100096.91
2022-12-14T20:18:04.625Z,100100.53
2022-12-14T20:20:32.364Z,100100.53
2022-12-14T20:22:58.802Z,100095.97
2022-12-14T20:25:25.214Z,100105.78
2022-12-14T20:27:52.597Z,100108.81
2022-12-14T20:30:19.425Z,100104.69
2022-12-14T20:32:49.329Z,100102.09
2022-12-14T20:35:18.606Z,100107.56
2022-12-14T20:37:45.779Z,100104.22
2022-12-14T20:40:12.505Z,100098.56
2022-12-14T20:42:38.997Z,100105.44
2022-12-14T20:45:07.389Z,100112.44
2022-12-14T20:47:34.207Z,100108.91
2022-12-14T20:50:00.649Z,100115.38
2022-12-14T20:52:27.171Z,100108.06
2022-12-14T20:54:53.675Z,100109.75
2022-12-14T20:57:20.119Z,100108.81
2022-12-14T20:59:46.518Z,100121.00
2022-12-14T21:02:17.398Z,100116.28
2022-12-14T21:04:43.911Z,100119.34
2022-12-14T21:07:10.376Z,100117.66
2022-12-14T21:09:36.833Z,100126.53
2022-12-14T21:12:21.569Z,100123.00
2022-12-14T21:14:53.015Z,100128.50
2022-12-14T21:17:20.992Z,100127.59
2022-12-14T21:19:47.671Z,100138.88
2022-12-14T21:22:16.395Z,100137.50
2022-12-14T21:27:32.649Z,100131.25
2022-12-14T21:30:00.409Z,100141.19
2022-12-14T21:32:27.128Z,100143.00
2022-12-14T21:34:53.591Z,100138.75
2022-12-14T21:37:20.510Z,100140.84
2022-12-14T21:39:53.917Z,100133.41
2022-12-14T21:42:24.814Z,100144.38
2022-12-14T21:44:52.694Z,100147.88
2022-12-14T21:47:21.621Z,100151.09
2022-12-14T21:49:48.165Z,100132.75
2022-12-14T21:52:17.914Z,100135.50
2022-12-14T21:54:44.700Z,100134.28
2022-12-14T21:57:34.278Z,100140.06
2022-12-14T22:00:01.025Z,100129.84
2022-12-14T22:02:27.745Z,100130.28
2022-12-14T22:04:56.301Z,100145.41
2022-12-14T22:07:25.193Z,100139.19
2022-12-14T22:09:51.811Z,100139.78
2022-12-14T22:12:18.421Z,100148.91
2022-12-14T22:14:44.912Z,100141.63
2022-12-14T22:17:13.094Z,100139.78
2022-12-14T22:19:39.889Z,100131.41
2022-12-14T22:22:06.437Z,100145.47
2022-12-14T22:24:32.952Z,100144.22
2022-12-14T22:26:59.528Z,100134.13
2022-12-14T22:29:25.947Z,100134.59
2022-12-14T22:31:52.551Z,100138.53
2022-12-14T22:34:21.475Z,100142.41
2022-12-14T22:36:49.531Z,100150.00
2022-12-14T22:39:17.506Z,100149.88
2022-12-14T22:41:44.010Z,100149.41
2022-12-14T22:44:11.751Z,100155.41
2022-12-14T22:46:39.376Z,100140.84
2022-12-14T22:49:05.771Z,100137.34
2022-12-14T22:51:32.421Z,100137.97
2022-12-14T22:53:58.888Z,100142.25
2022-12-14T22:56:36.644Z,100146.53
2022-12-14T22:59:36.353Z,100157.50
2022-12-14T23:02:03.192Z,100151.72
2022-12-14T23:04:29.914Z,100163.34
2022-12-14T23:06:56.367Z,100157.66
2022-12-14T23:09:41.346Z,100170.63
2022-12-14T23:12:26.055Z,100167.91
2022-12-14T23:15:11.209Z,100165.28
2022-12-14T23:17:56.291Z,100167.69
2022-12-14T23:20:41.503Z,100166.78
2022-12-14T23:23:27.724Z,100170.44
2022-12-14T23:26:12.943Z,100173.97
2022-12-14T23:28:58.461Z,100171.50
2022-12-14T23:31:43.501Z,100162.03
2022-12-14T23:34:28.705Z,100169.53
2022-12-14T23:37:19.512Z,100154.13
2022-12-14T23:40:05.289Z,100152.56
2022-12-14T23:42:50.458Z,100152.56
2022-12-14T23:45:35.498Z,100157.50
2022-12-14T23:48:20.589Z,100152.72
2022-12-14T23:51:05.650Z,100144.50
2022-12-14T23:53:50.780Z,100140.09
2022-12-14T23:56:36.060Z,100149.84
2022-12-14T23:59:22.790Z,100148.19
